Terminal Aerodrome Forecast
Issued by NWS

Home | Current Version | Previous Version | Text Only | Print | Product List | Glossary On
Versions: 1 2 3 4 5 6 7 8 9 10 11 12 13 14 15 16 17 18 19 20 21
000
FTUS43 KAPX 171100
TAFPLN
TAF
KPLN 171120Z 1712/1812 00000KT P6SM SCT110
     FM171300 23006KT P6SM BKN100
     FM171500 24010G18KT P6SM BKN110
     FM172000 27010KT P6SM BKN100
     FM172300 35010KT P6SM OVC050
     FM180200 02008KT P6SM BKN025=

USA.gov is the U.S. government's official web portal to all federal, state and local government web resources and services.